sensor_id;sensor_type;location;lat;lon;timestamp;P1;durP1;ratioP1;P2;durP2;ratioP2
3733;SDS011;1882;52.256;8.874;2022-09-09T00:04:37;2.30;;;1.90;;
3733;SDS011;1882;52.256;8.874;2022-09-09T00:09:40;3.90;;;2.33;;
3733;SDS011;1882;52.256;8.874;2022-09-09T00:12:12;4.20;;;2.10;;
3733;SDS011;1882;52.256;8.874;2022-09-09T00:14:54;3.30;;;2.37;;
3733;SDS011;1882;52.256;8.874;2022-09-09T00:17:56;4.47;;;2.07;;
3733;SDS011;1882;52.256;8.874;2022-09-09T00:20:48;3.00;;;1.80;;
3733;SDS011;1882;52.256;8.874;2022-09-09T00:23:25;4.83;;;2.10;;
3733;SDS011;1882;52.256;8.874;2022-09-09T00:28:30;4.93;;;1.97;;
3733;SDS011;1882;52.256;8.874;2022-09-09T00:31:14;5.70;;;2.10;;
3733;SDS011;1882;52.256;8.874;2022-09-09T00:33:44;4.40;;;1.93;;
3733;SDS011;1882;52.256;8.874;2022-09-09T00:36:13;4.23;;;2.03;;
3733;SDS011;1882;52.256;8.874;2022-09-09T00:38:43;3.60;;;2.10;;
3733;SDS011;1882;52.256;8.874;2022-09-09T00:41:22;2.27;;;2.00;;
3733;SDS011;1882;52.256;8.874;2022-09-09T00:54:33;5.70;;;2.30;;
3733;SDS011;1882;52.256;8.874;2022-09-09T00:57:05;3.80;;;2.20;;
3733;SDS011;1882;52.256;8.874;2022-09-09T00:59:51;3.50;;;2.00;;
3733;SDS011;1882;52.256;8.874;2022-09-09T01:02:26;3.77;;;1.70;;
3733;SDS011;1882;52.256;8.874;2022-09-09T01:05:00;5.00;;;2.10;;
3733;SDS011;1882;52.256;8.874;2022-09-09T01:07:32;6.17;;;2.03;;
3733;SDS011;1882;52.256;8.874;2022-09-09T01:09:59;3.23;;;2.00;;
3733;SDS011;1882;52.256;8.874;2022-09-09T01:15:22;7.73;;;2.23;;
3733;SDS011;1882;52.256;8.874;2022-09-09T01:17:53;2.93;;;2.03;;
3733;SDS011;1882;52.256;8.874;2022-09-09T01:29:17;4.90;;;1.80;;
3733;SDS011;1882;52.256;8.874;2022-09-09T01:34:23;2.27;;;1.70;;
3733;SDS011;1882;52.256;8.874;2022-09-09T01:37:07;4.10;;;1.80;;
3733;SDS011;1882;52.256;8.874;2022-09-09T01:39:37;2.67;;;2.00;;
3733;SDS011;1882;52.256;8.874;2022-09-09T01:42:09;5.50;;;1.93;;
3733;SDS011;1882;52.256;8.874;2022-09-09T01:44:39;6.90;;;1.90;;
3733;SDS011;1882;52.256;8.874;2022-09-09T01:47:07;3.63;;;2.03;;
3733;SDS011;1882;52.256;8.874;2022-09-09T01:49:41;6.30;;;1.90;;
3733;SDS011;1882;52.256;8.874;2022-09-09T01:52:18;5.63;;;2.10;;
3733;SDS011;1882;52.256;8.874;2022-09-09T01:54:45;4.83;;;2.00;;
3733;SDS011;1882;52.256;8.874;2022-09-09T02:00:08;8.53;;;2.10;;
3733;SDS011;1882;52.256;8.874;2022-09-09T02:07:59;7.50;;;2.30;;
3733;SDS011;1882;52.256;8.874;2022-09-09T02:11:06;3.33;;;2.17;;
3733;SDS011;1882;52.256;8.874;2022-09-09T02:14:17;9.40;;;2.37;;
3733;SDS011;1882;52.256;8.874;2022-09-09T02:19:27;2.23;;;2.03;;
3733;SDS011;1882;52.256;8.874;2022-09-09T02:22:04;7.63;;;2.13;;
3733;SDS011;1882;52.256;8.874;2022-09-09T02:24:33;3.37;;;2.00;;
3733;SDS011;1882;52.256;8.874;2022-09-09T02:27:19;4.57;;;2.13;;
3733;SDS011;1882;52.256;8.874;2022-09-09T02:29:49;4.80;;;2.20;;
3733;SDS011;1882;52.256;8.874;2022-09-09T02:32:24;4.30;;;2.00;;
3733;SDS011;1882;52.256;8.874;2022-09-09T02:34:53;4.03;;;2.23;;
3733;SDS011;1882;52.256;8.874;2022-09-09T02:37:23;3.20;;;2.03;;
3733;SDS011;1882;52.256;8.874;2022-09-09T02:39:55;4.57;;;2.10;;
3733;SDS011;1882;52.256;8.874;2022-09-09T02:42:28;2.90;;;2.20;;
3733;SDS011;1882;52.256;8.874;2022-09-09T02:44:56;9.80;;;2.27;;
3733;SDS011;1882;52.256;8.874;2022-09-09T02:47:34;4.80;;;2.20;;
3733;SDS011;1882;52.256;8.874;2022-09-09T02:50:17;6.43;;;2.50;;
3733;SDS011;1882;52.256;8.874;2022-09-09T02:55:41;3.13;;;2.20;;
3733;SDS011;1882;52.256;8.874;2022-09-09T02:58:14;7.10;;;2.30;;
3733;SDS011;1882;52.256;8.874;2022-09-09T03:01:02;4.20;;;2.07;;
3733;SDS011;1882;52.256;8.874;2022-09-09T03:03:30;3.00;;;2.10;;
3733;SDS011;1882;52.256;8.874;2022-09-09T03:05:59;1.83;;;1.70;;
3733;SDS011;1882;52.256;8.874;2022-09-09T03:08:27;5.10;;;1.93;;
3733;SDS011;1882;52.256;8.874;2022-09-09T03:10:55;3.87;;;1.70;;
3733;SDS011;1882;52.256;8.874;2022-09-09T03:13:27;2.10;;;1.90;;
3733;SDS011;1882;52.256;8.874;2022-09-09T03:15:53;6.20;;;2.30;;
3733;SDS011;1882;52.256;8.874;2022-09-09T03:18:20;3.93;;;1.60;;
3733;SDS011;1882;52.256;8.874;2022-09-09T03:20:50;3.20;;;1.83;;
3733;SDS011;1882;52.256;8.874;2022-09-09T03:23:18;6.00;;;1.77;;
3733;SDS011;1882;52.256;8.874;2022-09-09T03:25:49;6.57;;;2.10;;
3733;SDS011;1882;52.256;8.874;2022-09-09T03:28:20;2.57;;;2.10;;
3733;SDS011;1882;52.256;8.874;2022-09-09T03:30:48;2.80;;;1.70;;
3733;SDS011;1882;52.256;8.874;2022-09-09T03:33:18;2.50;;;1.90;;
3733;SDS011;1882;52.256;8.874;2022-09-09T03:35:46;3.60;;;2.07;;
3733;SDS011;1882;52.256;8.874;2022-09-09T03:38:17;3.70;;;1.90;;
3733;SDS011;1882;52.256;8.874;2022-09-09T03:40:55;6.43;;;2.07;;
3733;SDS011;1882;52.256;8.874;2022-09-09T03:43:24;10.43;;;2.07;;
3733;SDS011;1882;52.256;8.874;2022-09-09T03:45:52;3.20;;;1.80;;
3733;SDS011;1882;52.256;8.874;2022-09-09T03:48:24;4.30;;;2.07;;
3733;SDS011;1882;52.256;8.874;2022-09-09T03:50:52;7.67;;;2.20;;
3733;SDS011;1882;52.256;8.874;2022-09-09T03:53:20;9.57;;;1.70;;
3733;SDS011;1882;52.256;8.874;2022-09-09T03:55:48;3.10;;;1.77;;
3733;SDS011;1882;52.256;8.874;2022-09-09T03:58:18;3.53;;;1.93;;
3733;SDS011;1882;52.256;8.874;2022-09-09T04:00:59;2.20;;;2.00;;
3733;SDS011;1882;52.256;8.874;2022-09-09T04:03:26;2.20;;;2.00;;
3733;SDS011;1882;52.256;8.874;2022-09-09T04:05:54;2.50;;;2.03;;
3733;SDS011;1882;52.256;8.874;2022-09-09T04:08:24;3.80;;;1.90;;
3733;SDS011;1882;52.256;8.874;2022-09-09T04:10:54;6.33;;;1.93;;
3733;SDS011;1882;52.256;8.874;2022-09-09T04:13:25;7.20;;;2.00;;
3733;SDS011;1882;52.256;8.874;2022-09-09T04:15:53;3.97;;;2.27;;
3733;SDS011;1882;52.256;8.874;2022-09-09T04:18:22;5.30;;;2.10;;
3733;SDS011;1882;52.256;8.874;2022-09-09T04:20:50;5.60;;;2.60;;
3733;SDS011;1882;52.256;8.874;2022-09-09T04:23:21;5.17;;;2.00;;
3733;SDS011;1882;52.256;8.874;2022-09-09T04:25:49;3.97;;;2.10;;
3733;SDS011;1882;52.256;8.874;2022-09-09T04:28:29;6.23;;;2.30;;
3733;SDS011;1882;52.256;8.874;2022-09-09T04:31:03;5.40;;;2.07;;
3733;SDS011;1882;52.256;8.874;2022-09-09T04:33:34;3.87;;;1.90;;
3733;SDS011;1882;52.256;8.874;2022-09-09T04:36:06;2.83;;;2.33;;
3733;SDS011;1882;52.256;8.874;2022-09-09T04:38:34;5.73;;;2.20;;
3733;SDS011;1882;52.256;8.874;2022-09-09T04:41:02;2.70;;;2.33;;
3733;SDS011;1882;52.256;8.874;2022-09-09T04:43:29;2.67;;;1.90;;
3733;SDS011;1882;52.256;8.874;2022-09-09T04:45:57;3.60;;;2.10;;
3733;SDS011;1882;52.256;8.874;2022-09-09T04:48:25;4.10;;;2.40;;
3733;SDS011;1882;52.256;8.874;2022-09-09T04:50:55;6.10;;;2.50;;
3733;SDS011;1882;52.256;8.874;2022-09-09T04:53:28;3.87;;;2.40;;
3733;SDS011;1882;52.256;8.874;2022-09-09T04:56:14;7.97;;;2.50;;
3733;SDS011;1882;52.256;8.874;2022-09-09T04:58:54;2.30;;;2.10;;
3733;SDS011;1882;52.256;8.874;2022-09-09T05:01:26;2.63;;;2.27;;
3733;SDS011;1882;52.256;8.874;2022-09-09T05:04:00;5.63;;;2.53;;
3733;SDS011;1882;52.256;8.874;2022-09-09T05:06:26;7.33;;;2.30;;
3733;SDS011;1882;52.256;8.874;2022-09-09T05:08:57;3.60;;;2.50;;
3733;SDS011;1882;52.256;8.874;2022-09-09T05:11:30;5.70;;;2.37;;
3733;SDS011;1882;52.256;8.874;2022-09-09T05:14:18;6.50;;;2.30;;
3733;SDS011;1882;52.256;8.874;2022-09-09T05:16:45;4.50;;;2.53;;
3733;SDS011;1882;52.256;8.874;2022-09-09T05:19:13;6.30;;;2.53;;
3733;SDS011;1882;52.256;8.874;2022-09-09T05:21:46;4.97;;;2.60;;
3733;SDS011;1882;52.256;8.874;2022-09-09T05:24:15;2.87;;;2.40;;
3733;SDS011;1882;52.256;8.874;2022-09-09T05:26:44;5.63;;;2.50;;
3733;SDS011;1882;52.256;8.874;2022-09-09T05:29:11;5.10;;;2.50;;
3733;SDS011;1882;52.256;8.874;2022-09-09T05:31:38;5.27;;;2.70;;
3733;SDS011;1882;52.256;8.874;2022-09-09T05:34:09;4.00;;;2.50;;
3733;SDS011;1882;52.256;8.874;2022-09-09T05:36:36;4.60;;;2.43;;
3733;SDS011;1882;52.256;8.874;2022-09-09T05:39:03;6.40;;;2.40;;
3733;SDS011;1882;52.256;8.874;2022-09-09T05:41:31;7.70;;;2.50;;
3733;SDS011;1882;52.256;8.874;2022-09-09T05:44:01;4.30;;;2.60;;
3733;SDS011;1882;52.256;8.874;2022-09-09T05:46:34;4.50;;;2.23;;
3733;SDS011;1882;52.256;8.874;2022-09-09T05:49:02;3.20;;;2.20;;
3733;SDS011;1882;52.256;8.874;2022-09-09T05:51:31;7.37;;;2.77;;
3733;SDS011;1882;52.256;8.874;2022-09-09T05:54:03;7.57;;;2.73;;
3733;SDS011;1882;52.256;8.874;2022-09-09T05:56:33;5.07;;;2.87;;
3733;SDS011;1882;52.256;8.874;2022-09-09T05:59:00;5.60;;;2.70;;
3733;SDS011;1882;52.256;8.874;2022-09-09T06:01:31;14.90;;;3.00;;
3733;SDS011;1882;52.256;8.874;2022-09-09T06:04:04;8.33;;;3.10;;
3733;SDS011;1882;52.256;8.874;2022-09-09T06:06:33;5.77;;;2.57;;
3733;SDS011;1882;52.256;8.874;2022-09-09T06:09:10;10.23;;;2.70;;
3733;SDS011;1882;52.256;8.874;2022-09-09T06:11:40;3.87;;;2.50;;
3733;SDS011;1882;52.256;8.874;2022-09-09T06:14:08;5.87;;;2.80;;
3733;SDS011;1882;52.256;8.874;2022-09-09T06:16:36;4.20;;;2.70;;
3733;SDS011;1882;52.256;8.874;2022-09-09T06:19:12;4.50;;;2.67;;
3733;SDS011;1882;52.256;8.874;2022-09-09T06:21:39;7.73;;;2.77;;
3733;SDS011;1882;52.256;8.874;2022-09-09T06:24:08;4.97;;;2.70;;
3733;SDS011;1882;52.256;8.874;2022-09-09T06:26:40;7.77;;;2.87;;
3733;SDS011;1882;52.256;8.874;2022-09-09T06:29:09;10.23;;;2.50;;
3733;SDS011;1882;52.256;8.874;2022-09-09T06:31:39;3.97;;;2.20;;
3733;SDS011;1882;52.256;8.874;2022-09-09T06:34:22;2.80;;;2.20;;
3733;SDS011;1882;52.256;8.874;2022-09-09T06:36:53;3.70;;;2.20;;
3733;SDS011;1882;52.256;8.874;2022-09-09T06:39:20;4.07;;;2.27;;
3733;SDS011;1882;52.256;8.874;2022-09-09T06:41:47;9.03;;;2.50;;
3733;SDS011;1882;52.256;8.874;2022-09-09T06:44:53;9.47;;;2.50;;
3733;SDS011;1882;52.256;8.874;2022-09-09T06:47:28;4.20;;;1.87;;
3733;SDS011;1882;52.256;8.874;2022-09-09T06:49:56;5.33;;;2.00;;
3733;SDS011;1882;52.256;8.874;2022-09-09T06:52:23;2.47;;;1.83;;
3733;SDS011;1882;52.256;8.874;2022-09-09T06:54:52;5.17;;;2.13;;
3733;SDS011;1882;52.256;8.874;2022-09-09T06:57:20;4.73;;;2.40;;
3733;SDS011;1882;52.256;8.874;2022-09-09T07:00:09;4.67;;;2.30;;
3733;SDS011;1882;52.256;8.874;2022-09-09T07:02:37;5.60;;;2.43;;
3733;SDS011;1882;52.256;8.874;2022-09-09T07:05:06;3.63;;;2.10;;
3733;SDS011;1882;52.256;8.874;2022-09-09T07:07:36;3.00;;;2.10;;
3733;SDS011;1882;52.256;8.874;2022-09-09T07:10:04;3.83;;;1.93;;
3733;SDS011;1882;52.256;8.874;2022-09-09T07:12:31;5.57;;;2.27;;
3733;SDS011;1882;52.256;8.874;2022-09-09T07:14:59;3.10;;;2.10;;
3733;SDS011;1882;52.256;8.874;2022-09-09T07:17:26;3.00;;;2.27;;
3733;SDS011;1882;52.256;8.874;2022-09-09T07:19:55;4.43;;;2.33;;
3733;SDS011;1882;52.256;8.874;2022-09-09T07:22:23;7.30;;;2.43;;
3733;SDS011;1882;52.256;8.874;2022-09-09T07:24:49;3.43;;;2.10;;
3733;SDS011;1882;52.256;8.874;2022-09-09T07:27:19;6.20;;;2.33;;
3733;SDS011;1882;52.256;8.874;2022-09-09T07:29:47;4.70;;;2.07;;
3733;SDS011;1882;52.256;8.874;2022-09-09T07:32:14;3.43;;;1.90;;
3733;SDS011;1882;52.256;8.874;2022-09-09T07:34:42;2.70;;;2.03;;
3733;SDS011;1882;52.256;8.874;2022-09-09T07:37:09;6.53;;;2.20;;
3733;SDS011;1882;52.256;8.874;2022-09-09T07:39:40;5.13;;;2.10;;
3733;SDS011;1882;52.256;8.874;2022-09-09T07:42:07;5.23;;;2.30;;
3733;SDS011;1882;52.256;8.874;2022-09-09T07:44:37;3.23;;;2.03;;
3733;SDS011;1882;52.256;8.874;2022-09-09T07:47:09;4.70;;;1.80;;
3733;SDS011;1882;52.256;8.874;2022-09-09T07:49:43;4.83;;;1.80;;
3733;SDS011;1882;52.256;8.874;2022-09-09T07:52:15;8.73;;;2.13;;
3733;SDS011;1882;52.256;8.874;2022-09-09T07:54:48;4.27;;;1.90;;
3733;SDS011;1882;52.256;8.874;2022-09-09T07:57:15;2.97;;;1.60;;
3733;SDS011;1882;52.256;8.874;2022-09-09T07:59:45;5.30;;;2.00;;
3733;SDS011;1882;52.256;8.874;2022-09-09T08:02:13;3.00;;;1.83;;
3733;SDS011;1882;52.256;8.874;2022-09-09T08:04:40;4.83;;;1.60;;
3733;SDS011;1882;52.256;8.874;2022-09-09T08:07:06;6.40;;;2.13;;
3733;SDS011;1882;52.256;8.874;2022-09-09T08:09:43;4.40;;;1.90;;
3733;SDS011;1882;52.256;8.874;2022-09-09T08:12:16;6.33;;;2.20;;
3733;SDS011;1882;52.256;8.874;2022-09-09T08:14:43;4.40;;;1.90;;
3733;SDS011;1882;52.256;8.874;2022-09-09T08:17:09;4.23;;;2.00;;
3733;SDS011;1882;52.256;8.874;2022-09-09T08:19:37;3.20;;;1.90;;
3733;SDS011;1882;52.256;8.874;2022-09-09T08:22:09;4.87;;;2.47;;
3733;SDS011;1882;52.256;8.874;2022-09-09T08:24:38;6.87;;;2.10;;
3733;SDS011;1882;52.256;8.874;2022-09-09T08:27:06;5.70;;;2.07;;
3733;SDS011;1882;52.256;8.874;2022-09-09T08:29:40;4.40;;;1.80;;
3733;SDS011;1882;52.256;8.874;2022-09-09T08:32:07;5.20;;;1.90;;
3733;SDS011;1882;52.256;8.874;2022-09-09T08:34:36;6.60;;;2.10;;
3733;SDS011;1882;52.256;8.874;2022-09-09T08:37:10;5.37;;;2.10;;
3733;SDS011;1882;52.256;8.874;2022-09-09T08:39:39;5.97;;;2.33;;
3733;SDS011;1882;52.256;8.874;2022-09-09T08:55:37;6.23;;;2.13;;
3733;SDS011;1882;52.256;8.874;2022-09-09T08:58:19;5.03;;;2.10;;
3733;SDS011;1882;52.256;8.874;2022-09-09T09:03:47;3.37;;;1.87;;
3733;SDS011;1882;52.256;8.874;2022-09-09T09:12:00;6.83;;;2.17;;
3733;SDS011;1882;52.256;8.874;2022-09-09T09:14:34;3.30;;;2.10;;
3733;SDS011;1882;52.256;8.874;2022-09-09T09:19:42;3.40;;;1.63;;
3733;SDS011;1882;52.256;8.874;2022-09-09T09:22:21;4.80;;;2.20;;
3733;SDS011;1882;52.256;8.874;2022-09-09T09:30:29;8.77;;;2.30;;
3733;SDS011;1882;52.256;8.874;2022-09-09T09:35:40;7.00;;;2.53;;
3733;SDS011;1882;52.256;8.874;2022-09-09T09:41:06;6.73;;;2.30;;
3733;SDS011;1882;52.256;8.874;2022-09-09T09:43:35;4.20;;;2.10;;
3733;SDS011;1882;52.256;8.874;2022-09-09T09:46:21;5.83;;;2.30;;
3733;SDS011;1882;52.256;8.874;2022-09-09T09:49:00;5.57;;;1.80;;
3733;SDS011;1882;52.256;8.874;2022-09-09T09:51:33;6.50;;;2.17;;
3733;SDS011;1882;52.256;8.874;2022-09-09T09:56:40;10.70;;;2.53;;
3733;SDS011;1882;52.256;8.874;2022-09-09T09:59:21;7.33;;;2.50;;
3733;SDS011;1882;52.256;8.874;2022-09-09T10:02:16;5.30;;;2.33;;
3733;SDS011;1882;52.256;8.874;2022-09-09T10:04:48;6.93;;;2.60;;
3733;SDS011;1882;52.256;8.874;2022-09-09T10:07:17;12.00;;;2.87;;
3733;SDS011;1882;52.256;8.874;2022-09-09T10:09:45;6.53;;;2.40;;
3733;SDS011;1882;52.256;8.874;2022-09-09T10:18:26;7.67;;;2.37;;
3733;SDS011;1882;52.256;8.874;2022-09-09T10:21:16;5.77;;;2.30;;
3733;SDS011;1882;52.256;8.874;2022-09-09T10:29:30;6.63;;;2.10;;
3733;SDS011;1882;52.256;8.874;2022-09-09T10:43:18;4.67;;;1.67;;
3733;SDS011;1882;52.256;8.874;2022-09-09T10:45:51;5.97;;;1.90;;
3733;SDS011;1882;52.256;8.874;2022-09-09T10:48:29;4.30;;;1.57;;
3733;SDS011;1882;52.256;8.874;2022-09-09T10:53:54;5.67;;;1.90;;
3733;SDS011;1882;52.256;8.874;2022-09-09T10:56:24;7.20;;;1.77;;
3733;SDS011;1882;52.256;8.874;2022-09-09T11:01:49;5.30;;;1.40;;
3733;SDS011;1882;52.256;8.874;2022-09-09T11:06:50;3.97;;;1.80;;
3733;SDS011;1882;52.256;8.874;2022-09-09T11:09:27;4.30;;;2.20;;
3733;SDS011;1882;52.256;8.874;2022-09-09T11:11:56;5.33;;;1.80;;
3733;SDS011;1882;52.256;8.874;2022-09-09T11:17:12;3.03;;;1.47;;
3733;SDS011;1882;52.256;8.874;2022-09-09T11:19:43;3.57;;;2.07;;
3733;SDS011;1882;52.256;8.874;2022-09-09T11:25:08;2.40;;;1.60;;
3733;SDS011;1882;52.256;8.874;2022-09-09T11:30:43;3.33;;;1.53;;
3733;SDS011;1882;52.256;8.874;2022-09-09T11:41:13;3.53;;;1.73;;
3733;SDS011;1882;52.256;8.874;2022-09-09T11:43:50;5.50;;;1.80;;
3733;SDS011;1882;52.256;8.874;2022-09-09T11:46:19;5.57;;;1.73;;
3733;SDS011;1882;52.256;8.874;2022-09-09T11:49:00;2.20;;;1.50;;
3733;SDS011;1882;52.256;8.874;2022-09-09T11:51:31;4.73;;;1.60;;
3733;SDS011;1882;52.256;8.874;2022-09-09T11:54:02;4.13;;;1.87;;
3733;SDS011;1882;52.256;8.874;2022-09-09T11:56:59;4.33;;;2.00;;
3733;SDS011;1882;52.256;8.874;2022-09-09T11:59:29;4.30;;;1.60;;
3733;SDS011;1882;52.256;8.874;2022-09-09T12:02:01;4.83;;;1.80;;
3733;SDS011;1882;52.256;8.874;2022-09-09T12:04:30;4.43;;;1.57;;
3733;SDS011;1882;52.256;8.874;2022-09-09T12:09:46;3.07;;;1.53;;
3733;SDS011;1882;52.256;8.874;2022-09-09T12:17:49;3.53;;;1.33;;
3733;SDS011;1882;52.256;8.874;2022-09-09T12:20:18;2.50;;;1.50;;
3733;SDS011;1882;52.256;8.874;2022-09-09T12:28:15;2.70;;;1.60;;
3733;SDS011;1882;52.256;8.874;2022-09-09T12:33:16;3.73;;;1.80;;
3733;SDS011;1882;52.256;8.874;2022-09-09T12:35:46;2.90;;;1.97;;
3733;SDS011;1882;52.256;8.874;2022-09-09T12:38:30;5.80;;;1.80;;
3733;SDS011;1882;52.256;8.874;2022-09-09T12:41:00;3.90;;;1.40;;
3733;SDS011;1882;52.256;8.874;2022-09-09T12:43:27;3.97;;;1.57;;
3733;SDS011;1882;52.256;8.874;2022-09-09T12:45:59;5.37;;;1.70;;
3733;SDS011;1882;52.256;8.874;2022-09-09T12:48:34;5.50;;;1.70;;
3733;SDS011;1882;52.256;8.874;2022-09-09T12:51:03;3.50;;;1.50;;
3733;SDS011;1882;52.256;8.874;2022-09-09T12:53:33;1.93;;;1.50;;
3733;SDS011;1882;52.256;8.874;2022-09-09T12:56:02;5.53;;;1.70;;
3733;SDS011;1882;52.256;8.874;2022-09-09T12:58:30;5.00;;;1.80;;
3733;SDS011;1882;52.256;8.874;2022-09-09T13:01:01;4.57;;;1.90;;
3733;SDS011;1882;52.256;8.874;2022-09-09T13:03:32;6.40;;;1.80;;
3733;SDS011;1882;52.256;8.874;2022-09-09T13:06:10;6.53;;;1.70;;
3733;SDS011;1882;52.256;8.874;2022-09-09T13:08:39;2.97;;;1.47;;
3733;SDS011;1882;52.256;8.874;2022-09-09T13:11:10;3.53;;;1.30;;
3733;SDS011;1882;52.256;8.874;2022-09-09T13:13:42;5.37;;;1.67;;
3733;SDS011;1882;52.256;8.874;2022-09-09T13:16:19;3.47;;;1.67;;
3733;SDS011;1882;52.256;8.874;2022-09-09T13:18:49;3.10;;;1.70;;
3733;SDS011;1882;52.256;8.874;2022-09-09T13:21:16;4.30;;;1.60;;
3733;SDS011;1882;52.256;8.874;2022-09-09T13:23:47;3.60;;;1.70;;
3733;SDS011;1882;52.256;8.874;2022-09-09T13:26:20;2.40;;;1.30;;
3733;SDS011;1882;52.256;8.874;2022-09-09T13:28:49;4.80;;;1.50;;
3733;SDS011;1882;52.256;8.874;2022-09-09T13:31:35;2.60;;;1.53;;
3733;SDS011;1882;52.256;8.874;2022-09-09T13:34:25;5.37;;;1.40;;
3733;SDS011;1882;52.256;8.874;2022-09-09T13:36:55;3.17;;;1.30;;
3733;SDS011;1882;52.256;8.874;2022-09-09T13:39:25;6.27;;;1.50;;
3733;SDS011;1882;52.256;8.874;2022-09-09T13:41:52;3.37;;;1.80;;
3733;SDS011;1882;52.256;8.874;2022-09-09T13:47:27;2.90;;;1.50;;
3733;SDS011;1882;52.256;8.874;2022-09-09T13:49:49;6.33;;;1.43;;
3733;SDS011;1882;52.256;8.874;2022-09-09T13:52:17;5.10;;;1.40;;
3733;SDS011;1882;52.256;8.874;2022-09-09T13:54:48;2.47;;;1.40;;
3733;SDS011;1882;52.256;8.874;2022-09-09T13:57:17;3.70;;;1.50;;
3733;SDS011;1882;52.256;8.874;2022-09-09T13:59:54;5.73;;;1.50;;
3733;SDS011;1882;52.256;8.874;2022-09-09T14:02:31;5.17;;;1.50;;
3733;SDS011;1882;52.256;8.874;2022-09-09T14:04:59;4.00;;;1.40;;
3733;SDS011;1882;52.256;8.874;2022-09-09T14:07:25;3.03;;;1.50;;
3733;SDS011;1882;52.256;8.874;2022-09-09T14:09:52;2.60;;;1.50;;
3733;SDS011;1882;52.256;8.874;2022-09-09T14:12:19;2.00;;;1.60;;
3733;SDS011;1882;52.256;8.874;2022-09-09T14:14:46;3.43;;;1.93;;
3733;SDS011;1882;52.256;8.874;2022-09-09T14:17:13;6.13;;;1.77;;
3733;SDS011;1882;52.256;8.874;2022-09-09T14:19:40;5.10;;;2.07;;
3733;SDS011;1882;52.256;8.874;2022-09-09T14:22:07;3.47;;;1.47;;
3733;SDS011;1882;52.256;8.874;2022-09-09T14:24:33;4.50;;;1.60;;
3733;SDS011;1882;52.256;8.874;2022-09-09T14:27:00;3.63;;;1.80;;
3733;SDS011;1882;52.256;8.874;2022-09-09T14:29:27;5.60;;;1.60;;
3733;SDS011;1882;52.256;8.874;2022-09-09T14:31:53;1.77;;;1.50;;
3733;SDS011;1882;52.256;8.874;2022-09-09T14:34:20;5.63;;;1.73;;
3733;SDS011;1882;52.256;8.874;2022-09-09T14:36:49;4.10;;;1.80;;
3733;SDS011;1882;52.256;8.874;2022-09-09T14:39:17;5.03;;;1.77;;
3733;SDS011;1882;52.256;8.874;2022-09-09T14:41:44;6.00;;;1.90;;
3733;SDS011;1882;52.256;8.874;2022-09-09T14:44:11;1.77;;;1.50;;
3733;SDS011;1882;52.256;8.874;2022-09-09T14:46:38;3.83;;;1.37;;
3733;SDS011;1882;52.256;8.874;2022-09-09T14:49:05;9.07;;;1.50;;
3733;SDS011;1882;52.256;8.874;2022-09-09T14:51:31;4.07;;;1.50;;
3733;SDS011;1882;52.256;8.874;2022-09-09T14:53:58;6.00;;;1.60;;
3733;SDS011;1882;52.256;8.874;2022-09-09T14:56:26;2.50;;;1.43;;
3733;SDS011;1882;52.256;8.874;2022-09-09T14:58:55;3.30;;;1.60;;
3733;SDS011;1882;52.256;8.874;2022-09-09T15:01:24;2.97;;;1.40;;
3733;SDS011;1882;52.256;8.874;2022-09-09T15:03:56;3.53;;;1.37;;
3733;SDS011;1882;52.256;8.874;2022-09-09T15:06:27;4.43;;;1.50;;
3733;SDS011;1882;52.256;8.874;2022-09-09T15:08:56;2.30;;;1.20;;
3733;SDS011;1882;52.256;8.874;2022-09-09T15:11:26;7.57;;;1.47;;
3733;SDS011;1882;52.256;8.874;2022-09-09T15:13:54;3.70;;;1.20;;
3733;SDS011;1882;52.256;8.874;2022-09-09T15:16:21;2.63;;;1.47;;
3733;SDS011;1882;52.256;8.874;2022-09-09T15:18:51;2.23;;;1.50;;
3733;SDS011;1882;52.256;8.874;2022-09-09T15:21:20;2.50;;;1.30;;
3733;SDS011;1882;52.256;8.874;2022-09-09T15:23:48;1.40;;;1.30;;
3733;SDS011;1882;52.256;8.874;2022-09-09T15:26:15;1.73;;;1.40;;
3733;SDS011;1882;52.256;8.874;2022-09-09T15:28:43;2.30;;;1.47;;
3733;SDS011;1882;52.256;8.874;2022-09-09T15:31:15;2.90;;;1.60;;
3733;SDS011;1882;52.256;8.874;2022-09-09T15:33:49;4.70;;;1.73;;
3733;SDS011;1882;52.256;8.874;2022-09-09T15:36:36;10.17;;;1.63;;
3733;SDS011;1882;52.256;8.874;2022-09-09T15:39:06;3.63;;;1.43;;
3733;SDS011;1882;52.256;8.874;2022-09-09T15:41:34;1.77;;;1.20;;
3733;SDS011;1882;52.256;8.874;2022-09-09T15:44:00;1.50;;;1.40;;
3733;SDS011;1882;52.256;8.874;2022-09-09T15:49:10;3.47;;;1.40;;
3733;SDS011;1882;52.256;8.874;2022-09-09T15:51:44;2.13;;;1.30;;
3733;SDS011;1882;52.256;8.874;2022-09-09T15:54:16;2.60;;;1.50;;
3733;SDS011;1882;52.256;8.874;2022-09-09T15:56:45;7.13;;;1.30;;
3733;SDS011;1882;52.256;8.874;2022-09-09T15:59:14;2.33;;;1.40;;
3733;SDS011;1882;52.256;8.874;2022-09-09T16:01:41;2.60;;;1.60;;
3733;SDS011;1882;52.256;8.874;2022-09-09T16:04:09;3.53;;;1.60;;
3733;SDS011;1882;52.256;8.874;2022-09-09T16:06:36;2.67;;;1.40;;
3733;SDS011;1882;52.256;8.874;2022-09-09T16:09:03;1.70;;;1.60;;
3733;SDS011;1882;52.256;8.874;2022-09-09T16:11:35;2.40;;;1.30;;
3733;SDS011;1882;52.256;8.874;2022-09-09T16:14:03;3.03;;;1.60;;
3733;SDS011;1882;52.256;8.874;2022-09-09T16:16:31;3.53;;;1.60;;
3733;SDS011;1882;52.256;8.874;2022-09-09T16:18:59;2.10;;;1.50;;
3733;SDS011;1882;52.256;8.874;2022-09-09T16:21:28;3.43;;;1.90;;
3733;SDS011;1882;52.256;8.874;2022-09-09T16:23:57;3.60;;;1.50;;
3733;SDS011;1882;52.256;8.874;2022-09-09T16:26:35;3.80;;;1.40;;
3733;SDS011;1882;52.256;8.874;2022-09-09T16:29:03;2.83;;;1.70;;
3733;SDS011;1882;52.256;8.874;2022-09-09T16:31:30;2.70;;;1.20;;
3733;SDS011;1882;52.256;8.874;2022-09-09T16:33:58;2.33;;;1.50;;
3733;SDS011;1882;52.256;8.874;2022-09-09T16:36:26;1.20;;;1.10;;
3733;SDS011;1882;52.256;8.874;2022-09-09T16:38:55;3.33;;;1.37;;
3733;SDS011;1882;52.256;8.874;2022-09-09T16:41:24;1.60;;;1.50;;
3733;SDS011;1882;52.256;8.874;2022-09-09T16:43:55;1.97;;;1.30;;
3733;SDS011;1882;52.256;8.874;2022-09-09T16:46:23;3.33;;;1.43;;
3733;SDS011;1882;52.256;8.874;2022-09-09T16:48:51;3.10;;;1.50;;
3733;SDS011;1882;52.256;8.874;2022-09-09T16:51:28;2.80;;;1.60;;
3733;SDS011;1882;52.256;8.874;2022-09-09T16:54:03;2.73;;;1.47;;
3733;SDS011;1882;52.256;8.874;2022-09-09T16:56:36;5.27;;;1.43;;
3733;SDS011;1882;52.256;8.874;2022-09-09T16:59:05;1.63;;;1.53;;
3733;SDS011;1882;52.256;8.874;2022-09-09T17:01:35;2.03;;;1.60;;
3733;SDS011;1882;52.256;8.874;2022-09-09T17:04:05;2.63;;;1.50;;
3733;SDS011;1882;52.256;8.874;2022-09-09T17:06:33;2.70;;;1.60;;
3733;SDS011;1882;52.256;8.874;2022-09-09T17:09:02;3.70;;;1.60;;
3733;SDS011;1882;52.256;8.874;2022-09-09T17:11:30;2.63;;;1.30;;
3733;SDS011;1882;52.256;8.874;2022-09-09T17:13:57;3.07;;;1.63;;
3733;SDS011;1882;52.256;8.874;2022-09-09T17:16:28;3.87;;;1.70;;
3733;SDS011;1882;52.256;8.874;2022-09-09T17:18:57;6.73;;;1.97;;
3733;SDS011;1882;52.256;8.874;2022-09-09T17:21:29;4.80;;;2.20;;
3733;SDS011;1882;52.256;8.874;2022-09-09T17:23:57;4.23;;;2.00;;
3733;SDS011;1882;52.256;8.874;2022-09-09T17:26:25;5.53;;;2.00;;
3733;SDS011;1882;52.256;8.874;2022-09-09T17:28:54;5.30;;;2.03;;
3733;SDS011;1882;52.256;8.874;2022-09-09T17:31:25;3.23;;;1.70;;
3733;SDS011;1882;52.256;8.874;2022-09-09T17:33:54;4.90;;;1.90;;
3733;SDS011;1882;52.256;8.874;2022-09-09T17:36:22;4.30;;;2.10;;
3733;SDS011;1882;52.256;8.874;2022-09-09T17:38:51;5.50;;;2.50;;
3733;SDS011;1882;52.256;8.874;2022-09-09T17:41:25;6.13;;;4.80;;
3733;SDS011;1882;52.256;8.874;2022-09-09T17:43:52;6.40;;;2.57;;
3733;SDS011;1882;52.256;8.874;2022-09-09T17:46:22;5.23;;;2.37;;
3733;SDS011;1882;52.256;8.874;2022-09-09T17:48:50;3.47;;;2.00;;
3733;SDS011;1882;52.256;8.874;2022-09-09T17:51:22;3.57;;;2.00;;
3733;SDS011;1882;52.256;8.874;2022-09-09T17:53:51;4.50;;;1.60;;
3733;SDS011;1882;52.256;8.874;2022-09-09T17:56:21;2.70;;;1.10;;
3733;SDS011;1882;52.256;8.874;2022-09-09T17:58:49;1.47;;;1.03;;
3733;SDS011;1882;52.256;8.874;2022-09-09T18:01:20;1.90;;;1.30;;
3733;SDS011;1882;52.256;8.874;2022-09-09T18:03:48;2.47;;;1.50;;
3733;SDS011;1882;52.256;8.874;2022-09-09T18:06:20;1.87;;;1.20;;
3733;SDS011;1882;52.256;8.874;2022-09-09T18:08:50;3.23;;;1.47;;
3733;SDS011;1882;52.256;8.874;2022-09-09T18:11:19;4.93;;;1.87;;
3733;SDS011;1882;52.256;8.874;2022-09-09T18:13:53;2.70;;;1.43;;
3733;SDS011;1882;52.256;8.874;2022-09-09T18:16:22;2.20;;;1.70;;